createdAt,value
2023-03-04T00:00:42.572Z,50.85
2023-03-04T00:03:14.870Z,58.22
2023-03-04T00:05:42.451Z,49.42
2023-03-04T00:08:09.619Z,48.58
2023-03-04T00:10:36.886Z,46.33
2023-03-04T00:13:04.121Z,45.88
2023-03-04T00:15:31.345Z,49.28
2023-03-04T00:17:58.596Z,48.83
2023-03-04T00:20:25.784Z,46.97
2023-03-04T00:22:53.309Z,48.22
2023-03-04T00:25:20.525Z,49.60
2023-03-04T00:27:47.917Z,51.47
2023-03-04T00:30:15.350Z,47.70
2023-03-04T00:32:43.033Z,43.17
2023-03-04T00:35:10.483Z,42.72
2023-03-04T00:37:37.660Z,38.90
2023-03-04T00:40:06.146Z,41.97
2023-03-04T00:42:33.436Z,45.95
2023-03-04T00:45:00.996Z,50.13
2023-03-04T00:47:28.269Z,49.50
2023-03-04T00:49:56.185Z,43.42
2023-03-04T00:52:23.339Z,44.90
2023-03-04T00:54:50.574Z,45.20
2023-03-04T00:57:17.835Z,42.80
2023-03-04T00:59:45.766Z,39.30
2023-03-04T01:02:13.348Z,38.20
2023-03-04T01:04:41.375Z,37.47
2023-03-04T01:07:09.010Z,44.83
2023-03-04T01:09:36.197Z,45.75
2023-03-04T01:12:03.760Z,51.40
2023-03-04T01:14:30.981Z,40.50
2023-03-04T01:16:58.885Z,42.92
2023-03-04T01:19:26.384Z,41.13
2023-03-04T01:21:53.766Z,40.70
2023-03-04T01:24:22.394Z,51.90
2023-03-04T01:26:49.556Z,43.85
2023-03-04T01:29:16.830Z,40.50
2023-03-04T01:31:44.013Z,40.38
2023-03-04T01:34:11.280Z,46.90
2023-03-04T01:36:38.489Z,46.10
2023-03-04T01:39:06.050Z,48.08
2023-03-04T01:41:33.344Z,42.25
2023-03-04T01:44:01.991Z,45.45
2023-03-04T01:46:30.841Z,51.45
2023-03-04T01:48:59.452Z,45.90
2023-03-04T01:51:26.802Z,53.08
2023-03-04T01:53:54.426Z,45.65
2023-03-04T01:56:39.044Z,45.28
2023-03-04T01:59:29.927Z,49.45
2023-03-04T02:02:00.010Z,44.97
2023-03-04T02:04:32.326Z,50.60
2023-03-04T02:07:01.329Z,39.80
2023-03-04T02:09:31.387Z,47.25
2023-03-04T02:11:58.987Z,45.75
2023-03-04T02:14:26.274Z,47.80
2023-03-04T02:16:53.765Z,53.58
2023-03-04T02:19:38.553Z,50.22
2023-03-04T02:22:06.160Z,50.97
2023-03-04T02:24:42.798Z,51.83
2023-03-04T02:27:12.771Z,56.97
2023-03-04T02:29:40.401Z,48.22
2023-03-04T02:32:12.440Z,57.78
2023-03-04T02:34:47.945Z,105.70
2023-03-04T02:37:16.624Z,79.80
2023-03-04T02:39:47.571Z,52.38
2023-03-04T02:42:17.723Z,69.75
2023-03-04T02:44:47.772Z,50.80
2023-03-04T02:47:18.147Z,56.90
2023-03-04T02:49:46.416Z,93.13
2023-03-04T02:52:22.184Z,46.92
2023-03-04T02:54:49.386Z,64.43
2023-03-04T02:57:17.728Z,59.08
2023-03-04T02:59:48.909Z,51.33
2023-03-04T03:02:20.110Z,50.47
2023-03-04T03:04:47.325Z,61.80
2023-03-04T03:07:18.436Z,86.22
2023-03-04T03:09:45.619Z,69.57
2023-03-04T03:12:12.770Z,55.72
2023-03-04T03:14:40.096Z,48.10
2023-03-04T03:19:36.892Z,52.03
2023-03-04T03:22:07.189Z,64.32
2023-03-04T03:24:34.716Z,63.88
2023-03-04T03:27:01.858Z,51.47
2023-03-04T03:29:29.398Z,64.43
2023-03-04T03:31:56.745Z,59.10
2023-03-04T03:34:24.233Z,84.43
2023-03-04T03:36:51.760Z,55.67
2023-03-04T03:39:19.464Z,66.20
2023-03-04T03:41:46.612Z,54.67
2023-03-04T03:44:13.835Z,50.72
2023-03-04T03:46:41.119Z,54.67
2023-03-04T03:49:08.300Z,62.40
2023-03-04T03:51:35.451Z,47.40
2023-03-04T03:54:02.667Z,48.33
2023-03-04T03:56:29.862Z,47.25
2023-03-04T03:58:57.381Z,51.42
2023-03-04T04:01:24.544Z,47.03
2023-03-04T04:03:52.504Z,42.20
2023-03-04T04:06:19.603Z,44.03
2023-03-04T04:08:46.872Z,46.10
2023-03-04T04:11:14.165Z,42.35
2023-03-04T04:13:41.266Z,54.60
2023-03-04T04:16:10.337Z,43.33
2023-03-04T04:18:38.050Z,39.97
2023-03-04T04:21:05.815Z,49.50
2023-03-04T04:23:33.402Z,50.28
2023-03-04T04:26:00.696Z,48.15
2023-03-04T04:28:28.072Z,44.75
2023-03-04T04:30:55.558Z,39.63
2023-03-04T04:33:22.790Z,53.08
2023-03-04T04:35:51.149Z,41.03
2023-03-04T04:38:18.515Z,56.20
2023-03-04T04:40:45.684Z,44.47
2023-03-04T04:43:12.915Z,42.72
2023-03-04T04:45:40.932Z,42.40
2023-03-04T04:48:08.466Z,42.88
2023-03-04T04:50:35.942Z,38.25
2023-03-04T04:53:03.251Z,33.65
2023-03-04T04:55:30.519Z,39.60
2023-03-04T04:57:57.851Z,37.40
2023-03-04T05:00:25.167Z,43.75
2023-03-04T05:02:52.438Z,61.13
2023-03-04T05:05:19.850Z,39.08
2023-03-04T05:07:47.140Z,41.35
2023-03-04T05:10:14.374Z,41.30
2023-03-04T05:12:43.357Z,39.83
2023-03-04T05:15:11.221Z,37.30
2023-03-04T05:17:38.538Z,43.83
2023-03-04T05:20:06.635Z,42.42
2023-03-04T05:22:34.271Z,43.50
2023-03-04T05:25:01.657Z,39.88
2023-03-04T05:27:29.061Z,41.00
2023-03-04T05:29:59.242Z,41.05
2023-03-04T05:32:27.176Z,34.47
2023-03-04T05:34:54.343Z,35.30
2023-03-04T05:37:21.527Z,32.65
2023-03-04T05:39:48.684Z,35.90
2023-03-04T05:42:15.761Z,32.20
2023-03-04T05:44:43.101Z,37.78
2023-03-04T05:47:10.288Z,38.47
2023-03-04T05:49:37.597Z,40.42
2023-03-04T05:52:04.824Z,41.40
2023-03-04T05:54:32.036Z,40.92
2023-03-04T05:56:59.267Z,39.97
2023-03-04T05:59:26.438Z,57.10
2023-03-04T06:01:53.667Z,46.92
2023-03-04T06:04:20.888Z,42.95
2023-03-04T06:06:48.194Z,49.40
2023-03-04T06:09:15.540Z,45.03
2023-03-04T06:11:42.847Z,48.85
2023-03-04T06:14:10.109Z,50.17
2023-03-04T06:16:37.400Z,50.80
2023-03-04T06:19:04.780Z,49.75
2023-03-04T06:21:32.069Z,43.97
2023-03-04T06:23:59.253Z,41.55
2023-03-04T06:26:26.791Z,47.75
2023-03-04T06:28:56.412Z,42.88
2023-03-04T06:33:50.814Z,38.80
2023-03-04T06:36:18.237Z,36.45
2023-03-04T06:38:45.545Z,42.40
2023-03-04T06:41:13.583Z,43.15
2023-03-04T06:43:40.982Z,45.42
2023-03-04T06:46:09.059Z,49.65
2023-03-04T06:48:36.628Z,42.72
2023-03-04T06:51:11.695Z,45.22
2023-03-04T06:53:40.060Z,48.47
2023-03-04T06:56:09.933Z,52.58
2023-03-04T06:58:37.617Z,43.55
2023-03-04T07:01:19.932Z,39.67
2023-03-04T07:03:49.388Z,38.90
2023-03-04T07:06:20.375Z,60.17
2023-03-04T07:08:48.320Z,44.42
2023-03-04T07:11:16.593Z,47.22
2023-03-04T07:13:44.321Z,42.00
2023-03-04T07:16:15.035Z,43.33
2023-03-04T07:18:42.294Z,52.63
2023-03-04T07:21:10.241Z,54.25
2023-03-04T07:23:38.157Z,53.65
2023-03-04T07:26:06.001Z,54.53
2023-03-04T07:28:34.612Z,52.60
2023-03-04T07:31:30.563Z,55.27
2023-03-04T07:34:00.594Z,52.13
2023-03-04T07:36:29.156Z,54.42
2023-03-04T07:38:56.869Z,51.05
2023-03-04T07:41:27.263Z,49.03
2023-03-04T07:43:59.174Z,52.95
2023-03-04T07:46:26.354Z,53.05
2023-03-04T07:48:55.598Z,42.75
2023-03-04T07:51:25.676Z,45.63
2023-03-04T07:53:58.120Z,47.63
2023-03-04T07:56:29.923Z,40.95
2023-03-04T07:58:57.475Z,43.53
2023-03-04T08:01:34.234Z,44.20
2023-03-04T08:04:03.671Z,52.28
2023-03-04T08:09:05.800Z,51.47
2023-03-04T08:11:35.360Z,46.53
2023-03-04T08:16:30.426Z,39.17
2023-03-04T08:19:01.312Z,38.20
2023-03-04T08:21:29.826Z,32.47
2023-03-04T08:24:07.520Z,33.95
2023-03-04T08:26:42.179Z,31.70
2023-03-04T08:29:14.509Z,29.63
2023-03-04T08:31:42.395Z,30.25
2023-03-04T08:34:10.615Z,27.05
2023-03-04T08:36:38.314Z,33.00
2023-03-04T08:39:05.878Z,31.30
2023-03-04T08:41:33.330Z,30.85
2023-03-04T08:44:01.151Z,25.95
2023-03-04T08:46:29.078Z,30.80
2023-03-04T08:48:56.398Z,30.80
2023-03-04T08:51:23.615Z,28.83
2023-03-04T08:53:50.975Z,25.63
2023-03-04T08:56:18.281Z,20.40
2023-03-04T08:58:45.776Z,26.35
2023-03-04T09:01:14.547Z,21.90
2023-03-04T09:03:42.449Z,23.02
2023-03-04T09:06:14.403Z,25.75
2023-03-04T09:08:42.560Z,23.55
2023-03-04T09:11:10.807Z,18.52
2023-03-04T09:13:38.139Z,16.27
2023-03-04T09:16:11.234Z,19.10
2023-03-04T09:18:39.551Z,14.73
2023-03-04T09:21:08.139Z,20.77
2023-03-04T09:23:36.099Z,18.47
2023-03-04T09:26:20.295Z,17.08
2023-03-04T09:28:55.575Z,16.33
2023-03-04T09:31:24.183Z,19.58
2023-03-04T09:33:53.279Z,21.70
2023-03-04T09:36:21.134Z,18.20
2023-03-04T09:38:48.537Z,19.40
2023-03-04T09:41:23.730Z,19.08
2023-03-04T09:43:53.748Z,20.10
2023-03-04T09:46:35.657Z,15.05
2023-03-04T09:49:06.740Z,16.58
2023-03-04T09:51:56.162Z,15.75
2023-03-04T09:55:15.296Z,12.68
2023-03-04T09:58:05.326Z,17.65
2023-03-04T10:01:05.207Z,17.27
2023-03-04T10:04:13.425Z,10.15
2023-03-04T10:06:46.349Z,11.90
2023-03-04T10:09:19.608Z,12.32
2023-03-04T10:11:59.243Z,13.00
2023-03-04T10:15:13.411Z,11.20
2023-03-04T10:17:46.455Z,12.93
2023-03-04T10:20:25.942Z,11.13
2023-03-04T10:23:01.758Z,11.90
2023-03-04T10:25:32.542Z,13.25
2023-03-04T10:28:04.502Z,14.25
2023-03-04T10:31:08.664Z,11.00
2023-03-04T10:33:39.081Z,11.13
2023-03-04T10:36:30.292Z,10.13
2023-03-04T10:39:18.265Z,15.70
2023-03-04T10:42:03.799Z,17.15
2023-03-04T10:44:34.630Z,16.45
2023-03-04T10:47:02.612Z,11.05
2023-03-04T10:49:30.170Z,14.85
2023-03-04T10:52:17.978Z,25.80
2023-03-04T10:54:53.210Z,15.48
2023-03-04T10:57:28.361Z,8.93
2023-03-04T11:00:01.778Z,8.50
2023-03-04T11:02:35.671Z,8.68
2023-03-04T11:05:15.008Z,10.27
2023-03-04T11:07:57.476Z,8.95
2023-03-04T11:10:39.869Z,9.57
2023-03-04T11:13:19.486Z,7.32
2023-03-04T11:15:58.347Z,10.63
2023-03-04T11:18:37.698Z,11.15
2023-03-04T11:21:07.379Z,10.10
2023-03-04T11:23:59.702Z,11.18
2023-03-04T11:26:53.171Z,9.93
2023-03-04T11:29:53.902Z,10.48
2023-03-04T11:32:36.719Z,8.90
2023-03-04T11:36:02.434Z,10.20
2023-03-04T11:38:43.281Z,9.98
2023-03-04T11:41:21.701Z,9.25
2023-03-04T11:43:49.341Z,9.27
2023-03-04T11:46:45.948Z,13.15
2023-03-04T11:50:02.234Z,12.52
2023-03-04T11:53:09.804Z,12.32
2023-03-04T11:55:58.182Z,12.50
2023-03-04T11:58:52.976Z,11.18
2023-03-04T12:01:54.009Z,11.65
2023-03-04T12:04:55.027Z,11.65
2023-03-04T12:08:05.330Z,10.27
2023-03-04T12:10:55.333Z,9.52
2023-03-04T12:13:30.567Z,11.27
2023-03-04T12:16:26.958Z,10.85
2023-03-04T12:19:06.135Z,9.82
2023-03-04T12:22:09.919Z,9.75
2023-03-04T12:25:24.403Z,11.43
2023-03-04T12:28:25.380Z,10.45
2023-03-04T12:31:07.602Z,11.45
2023-03-04T12:34:22.240Z,10.38
2023-03-04T12:37:08.416Z,12.75
2023-03-04T12:39:54.843Z,11.07
2023-03-04T12:43:02.920Z,10.27
2023-03-04T12:46:41.374Z,11.30
2023-03-04T12:49:42.221Z,10.38
2023-03-04T12:52:48.719Z,11.00
2023-03-04T12:55:21.764Z,11.88
2023-03-04T12:57:49.989Z,10.75
2023-03-04T13:00:20.906Z,9.95
2023-03-04T13:02:54.884Z,9.73
2023-03-04T13:05:43.343Z,8.90
2023-03-04T13:08:52.590Z,8.68
2023-03-04T13:14:17.625Z,7.35
2023-03-04T13:16:48.582Z,8.00
2023-03-04T13:19:47.179Z,8.27
2023-03-04T13:22:38.644Z,8.25
2023-03-04T13:25:47.758Z,11.73
2023-03-04T13:28:37.210Z,8.98
2023-03-04T13:31:20.067Z,12.15
2023-03-04T13:33:52.807Z,9.20
2023-03-04T13:37:01.976Z,9.27
2023-03-04T13:39:30.344Z,10.45
2023-03-04T13:41:58.678Z,9.97
2023-03-04T13:44:43.947Z,7.80
2023-03-04T13:47:20.832Z,10.40
2023-03-04T13:49:48.758Z,10.27
2023-03-04T13:52:40.970Z,9.63
2023-03-04T13:55:36.268Z,8.75
2023-03-04T13:58:26.257Z,9.93
2023-03-04T14:00:55.405Z,9.88
2023-03-04T14:03:29.877Z,9.75
2023-03-04T14:06:25.176Z,10.63
2023-03-04T14:08:53.953Z,10.13
2023-03-04T14:11:33.569Z,11.95
2023-03-04T14:14:06.741Z,10.13
2023-03-04T14:17:03.163Z,10.35
2023-03-04T14:19:43.618Z,9.60
2023-03-04T14:22:29.883Z,10.23
2023-03-04T14:25:13.464Z,10.93
2023-03-04T14:27:40.948Z,10.02
2023-03-04T14:30:41.374Z,10.77
2023-03-04T14:33:17.190Z,10.82
2023-03-04T14:35:51.560Z,11.40
2023-03-04T14:38:41.024Z,10.13
2023-03-04T14:41:27.708Z,11.65
2023-03-04T14:44:00.616Z,10.10
2023-03-04T14:46:43.156Z,10.38
2023-03-04T14:49:15.065Z,9.80
2023-03-04T14:51:48.242Z,15.43
2023-03-04T14:54:38.641Z,14.48
2023-03-04T14:57:31.758Z,11.07
2023-03-04T15:00:22.156Z,12.80
2023-03-04T15:02:58.849Z,14.35
2023-03-04T15:05:35.825Z,10.52
2023-03-04T15:08:18.331Z,11.10
2023-03-04T15:10:58.972Z,10.73
2023-03-04T15:13:51.463Z,12.75
2023-03-04T15:16:22.833Z,12.00
2023-03-04T15:19:02.680Z,10.45
2023-03-04T15:21:40.538Z,12.65
2023-03-04T15:24:11.043Z,14.07
2023-03-04T15:26:42.013Z,15.32
2023-03-04T15:29:21.876Z,30.60
2023-03-04T15:31:49.655Z,147.73
2023-03-04T15:34:19.212Z,62.17
2023-03-04T15:36:50.338Z,22.17
2023-03-04T15:39:19.251Z,34.33
2023-03-04T15:41:47.820Z,22.30
2023-03-04T15:44:15.210Z,20.20
2023-03-04T15:46:42.645Z,17.25
2023-03-04T15:49:11.479Z,17.08
2023-03-04T15:51:39.733Z,20.50
2023-03-04T15:54:13.375Z,21.15
2023-03-04T15:56:41.396Z,18.33
2023-03-04T15:59:16.790Z,15.40
2023-03-04T16:01:44.516Z,16.70
2023-03-04T16:04:16.184Z,16.55
2023-03-04T16:06:48.025Z,16.33
2023-03-04T16:09:19.114Z,16.95
2023-03-04T16:11:47.009Z,14.65
2023-03-04T16:14:16.070Z,16.48
2023-03-04T16:16:45.842Z,15.50
2023-03-04T16:19:13.187Z,13.68
2023-03-04T16:21:40.923Z,19.15
2023-03-04T16:24:18.298Z,20.08
2023-03-04T16:26:46.144Z,20.55
2023-03-04T16:29:14.879Z,18.95
2023-03-04T16:31:42.191Z,18.38
2023-03-04T16:34:09.435Z,18.38
2023-03-04T16:36:36.753Z,16.40
2023-03-04T16:39:12.482Z,16.42
2023-03-04T16:41:39.695Z,15.77
2023-03-04T16:44:08.784Z,16.27
2023-03-04T16:46:36.132Z,19.38
2023-03-04T16:49:03.594Z,18.70
2023-03-04T16:51:39.232Z,20.75
2023-03-04T16:54:10.552Z,24.15
2023-03-04T16:56:37.666Z,27.70
2023-03-04T16:59:04.971Z,35.47
2023-03-04T17:01:36.123Z,36.78
2023-03-04T17:04:03.540Z,34.15
2023-03-04T17:06:30.823Z,38.58
2023-03-04T17:08:58.114Z,24.00
2023-03-04T17:11:25.447Z,19.48
2023-03-04T17:13:53.001Z,19.40
2023-03-04T17:16:20.383Z,20.83
2023-03-04T17:18:47.748Z,19.45
2023-03-04T17:21:20.385Z,20.58
2023-03-04T17:23:47.671Z,21.60
2023-03-04T17:26:16.145Z,26.85
2023-03-04T17:28:43.441Z,37.97
2023-03-04T17:31:13.179Z,37.22
2023-03-04T17:33:41.104Z,40.67
2023-03-04T17:36:11.891Z,51.50
2023-03-04T17:38:40.015Z,50.33
2023-03-04T17:41:15.133Z,52.92
2023-03-04T17:43:50.695Z,74.68
2023-03-04T17:46:21.245Z,40.47
2023-03-04T17:48:49.492Z,33.55
2023-03-04T17:51:16.708Z,28.35
2023-03-04T17:53:43.795Z,29.48
2023-03-04T17:56:11.934Z,24.70
2023-03-04T17:58:39.767Z,28.92
2023-03-04T18:01:20.091Z,37.58
2023-03-04T18:03:48.200Z,40.60
2023-03-04T18:06:16.549Z,44.63
2023-03-04T18:08:45.021Z,45.38
2023-03-04T18:11:12.659Z,44.20
2023-03-04T18:13:42.218Z,44.08
2023-03-04T18:16:11.348Z,44.03
2023-03-04T18:18:38.547Z,48.95
2023-03-04T18:21:06.157Z,44.67
2023-03-04T18:23:33.639Z,41.63
2023-03-04T18:26:02.357Z,35.15
2023-03-04T18:28:29.827Z,28.33
2023-03-04T18:30:57.226Z,28.50
2023-03-04T18:33:24.652Z,30.40
2023-03-04T18:36:02.119Z,27.95
2023-03-04T18:38:30.723Z,27.58
2023-03-04T18:41:08.283Z,33.87
2023-03-04T18:43:35.822Z,31.42
2023-03-04T18:46:10.676Z,30.48
2023-03-04T18:48:45.881Z,31.08
2023-03-04T18:51:13.059Z,32.10
2023-03-04T18:53:40.438Z,26.55
2023-03-04T18:56:16.282Z,33.05
2023-03-04T18:58:47.030Z,30.23
2023-03-04T19:01:16.334Z,30.98
2023-03-04T19:03:44.945Z,34.38
2023-03-04T19:06:12.626Z,32.93
2023-03-04T19:08:39.790Z,31.25
2023-03-04T19:11:07.105Z,36.03
2023-03-04T19:13:34.650Z,35.88
2023-03-04T19:16:01.946Z,32.03
2023-03-04T19:18:29.294Z,32.70
2023-03-04T19:21:00.028Z,32.47
2023-03-04T19:23:28.707Z,31.10
2023-03-04T19:25:55.979Z,32.00
2023-03-04T19:28:23.737Z,33.08
2023-03-04T19:30:53.248Z,30.50
2023-03-04T19:33:20.646Z,34.97
2023-03-04T19:35:48.168Z,35.15
2023-03-04T19:38:15.398Z,36.70
2023-03-04T19:40:46.086Z,36.88
2023-03-04T19:43:14.227Z,36.50
2023-03-04T19:45:41.731Z,37.53
2023-03-04T19:48:08.922Z,37.25
2023-03-04T19:50:36.240Z,37.00
2023-03-04T19:53:03.454Z,35.85
2023-03-04T19:55:31.158Z,37.05
2023-03-04T19:57:58.314Z,34.40
2023-03-04T20:00:25.772Z,33.97
2023-03-04T20:02:55.489Z,33.50
2023-03-04T20:05:22.684Z,36.13
2023-03-04T20:07:49.831Z,34.42
2023-03-04T20:10:18.521Z,31.38
2023-03-04T20:12:45.695Z,31.17
2023-03-04T20:15:12.802Z,29.05
2023-03-04T20:17:40.037Z,30.20
2023-03-04T20:20:10.017Z,32.70
2023-03-04T20:22:38.059Z,37.83
2023-03-04T20:25:05.848Z,37.50
2023-03-04T20:27:33.172Z,36.17
2023-03-04T20:30:03.256Z,29.77
2023-03-04T20:32:31.127Z,31.88
2023-03-04T20:34:58.372Z,33.60
2023-03-04T20:37:25.562Z,32.03
2023-03-04T20:39:52.712Z,30.40
2023-03-04T20:42:19.926Z,33.70
2023-03-04T20:44:47.154Z,34.70
2023-03-04T20:47:14.298Z,29.67
2023-03-04T20:49:41.712Z,28.08
2023-03-04T20:52:09.680Z,28.17
2023-03-04T20:54:38.442Z,29.38
2023-03-04T20:57:07.374Z,29.98
2023-03-04T20:59:35.687Z,32.20
2023-03-04T21:02:04.499Z,33.20
2023-03-04T21:04:33.913Z,32.13
2023-03-04T21:09:29.150Z,31.45
2023-03-04T21:11:56.589Z,33.60
2023-03-04T21:14:29.657Z,32.42
2023-03-04T21:17:00.610Z,32.78
2023-03-04T21:19:33.080Z,31.77
2023-03-04T21:22:01.588Z,34.40
2023-03-04T21:24:32.866Z,27.05
2023-03-04T21:27:00.974Z,30.67
2023-03-04T21:29:28.650Z,30.33
2023-03-04T21:32:26.472Z,33.42
2023-03-04T21:34:55.119Z,32.72
2023-03-04T21:37:24.619Z,31.97
2023-03-04T21:39:52.238Z,33.22
2023-03-04T21:42:19.585Z,31.52
2023-03-04T21:44:51.182Z,28.70
2023-03-04T21:47:20.417Z,29.75
2023-03-04T21:49:47.677Z,26.77
2023-03-04T21:52:15.050Z,28.90
2023-03-04T21:54:42.385Z,25.77
2023-03-04T21:57:09.980Z,27.85
2023-03-04T21:59:39.089Z,25.27
2023-03-04T22:02:20.603Z,25.75
2023-03-04T22:04:48.315Z,20.15
2023-03-04T22:07:16.316Z,25.48
2023-03-04T22:09:43.622Z,23.80
2023-03-04T22:12:10.837Z,21.67
2023-03-04T22:14:38.129Z,27.23
2023-03-04T22:17:05.470Z,22.85
2023-03-04T22:19:33.263Z,23.38
2023-03-04T22:22:00.551Z,33.38
2023-03-04T22:24:28.300Z,28.38
2023-03-04T22:26:57.023Z,30.95
2023-03-04T22:29:24.153Z,26.17
2023-03-04T22:31:51.440Z,26.40
2023-03-04T22:34:19.055Z,27.67
2023-03-04T22:36:48.581Z,25.95
2023-03-04T22:39:18.669Z,24.40
2023-03-04T22:41:46.371Z,26.00
2023-03-04T22:44:13.767Z,20.85
2023-03-04T22:46:41.615Z,20.05
2023-03-04T22:49:12.245Z,18.95
2023-03-04T22:51:42.354Z,20.60
2023-03-04T22:54:17.845Z,20.02
2023-03-04T22:56:45.679Z,16.38
2023-03-04T22:59:13.497Z,15.45
2023-03-04T23:01:41.223Z,13.90
2023-03-04T23:04:08.434Z,16.70
2023-03-04T23:06:36.886Z,15.20
2023-03-04T23:09:04.348Z,14.05
2023-03-04T23:11:34.798Z,15.93
2023-03-04T23:14:06.349Z,17.80
2023-03-04T23:16:38.029Z,16.75
2023-03-04T23:19:06.509Z,16.55
2023-03-04T23:21:34.646Z,17.80
2023-03-04T23:24:04.052Z,17.75
2023-03-04T23:26:35.111Z,17.73
2023-03-04T23:29:05.312Z,18.13
2023-03-04T23:31:34.055Z,17.17
2023-03-04T23:34:02.873Z,16.38
2023-03-04T23:36:33.802Z,17.25
2023-03-04T23:39:01.466Z,15.15
2023-03-04T23:41:30.652Z,15.90
2023-03-04T23:43:59.945Z,16.83
2023-03-04T23:46:28.258Z,17.48
2023-03-04T23:48:55.639Z,16.80
2023-03-04T23:51:28.079Z,15.85
2023-03-04T23:53:55.834Z,17.17
2023-03-04T23:56:28.085Z,17.27
2023-03-04T23:58:56.958Z,17.42
